createdAt,value
2018-03-20T00:02:17.147Z,13.80
2018-03-20T00:04:44.966Z,15.23
2018-03-20T00:07:12.572Z,13.45
2018-03-20T00:09:40.160Z,15.35
2018-03-20T00:12:08.544Z,11.50
2018-03-20T00:14:36.134Z,12.35
2018-03-20T00:17:04.521Z,11.23
2018-03-20T00:19:32.901Z,13.70
2018-03-20T00:22:01.299Z,16.67
2018-03-20T00:24:29.642Z,13.82
2018-03-20T00:26:57.244Z,11.73
2018-03-20T00:29:24.841Z,11.00
2018-03-20T00:31:53.208Z,14.25
2018-03-20T00:34:20.855Z,14.07
2018-03-20T00:36:48.444Z,9.23
2018-03-20T00:39:16.062Z,15.10
2018-03-20T00:41:43.665Z,11.57
2018-03-20T00:44:11.657Z,11.40
2018-03-20T00:46:40.166Z,13.95
2018-03-20T00:49:07.776Z,12.73
2018-03-20T00:51:36.155Z,10.70
2018-03-20T00:54:03.743Z,10.88
2018-03-20T00:56:32.116Z,12.70
2018-03-20T00:58:59.713Z,13.95
2018-03-20T01:01:28.120Z,11.18
2018-03-20T01:03:55.700Z,11.63
2018-03-20T01:06:23.329Z,12.98
2018-03-20T01:08:50.917Z,13.35
2018-03-20T01:11:19.294Z,12.73
2018-03-20T01:13:46.902Z,10.60
2018-03-20T01:16:14.505Z,13.27
2018-03-20T01:18:42.100Z,14.82
2018-03-20T01:21:09.702Z,15.60
2018-03-20T01:23:38.076Z,13.15
2018-03-20T01:26:05.664Z,13.93
2018-03-20T01:28:34.042Z,12.10
2018-03-20T01:31:01.679Z,13.20
2018-03-20T01:33:29.277Z,14.15
2018-03-20T01:35:56.867Z,13.75
2018-03-20T01:38:24.506Z,14.13
2018-03-20T01:40:52.091Z,15.82
2018-03-20T01:43:19.733Z,17.90
2018-03-20T01:45:47.322Z,12.70
2018-03-20T01:48:14.898Z,13.93
2018-03-20T01:50:42.508Z,13.65
2018-03-20T01:53:18.651Z,16.15
2018-03-20T01:55:46.248Z,12.80
2018-03-20T01:58:13.865Z,14.98
2018-03-20T02:00:41.464Z,14.35
2018-03-20T02:03:09.312Z,13.48
2018-03-20T02:05:36.927Z,13.75
2018-03-20T02:08:04.540Z,16.27
2018-03-20T02:10:32.924Z,16.48
2018-03-20T02:13:01.277Z,12.75
2018-03-20T02:15:28.858Z,16.45
2018-03-20T02:17:56.516Z,14.65
2018-03-20T02:20:24.100Z,16.87
2018-03-20T02:22:51.705Z,13.23
2018-03-20T02:25:19.288Z,14.87
2018-03-20T02:27:47.675Z,16.30
2018-03-20T02:30:16.026Z,15.88
2018-03-20T02:32:43.651Z,16.83
2018-03-20T02:35:11.999Z,15.73
2018-03-20T02:37:39.616Z,14.15
2018-03-20T02:40:07.997Z,12.95
2018-03-20T02:42:36.389Z,14.60
2018-03-20T02:45:04.753Z,16.05
2018-03-20T02:47:32.356Z,14.55
2018-03-20T02:50:00.742Z,15.07
2018-03-20T02:52:29.090Z,14.40
2018-03-20T02:54:56.704Z,16.00
2018-03-20T02:57:25.078Z,15.20
2018-03-20T02:59:52.702Z,17.02
2018-03-20T03:02:20.300Z,15.77
2018-03-20T03:04:47.939Z,16.17
2018-03-20T03:07:15.546Z,15.68
2018-03-20T03:09:43.160Z,17.08
2018-03-20T03:12:10.793Z,15.60
2018-03-20T03:14:38.384Z,14.27
2018-03-20T03:17:06.961Z,15.50
2018-03-20T03:19:34.548Z,18.17
2018-03-20T03:22:02.153Z,15.98
2018-03-20T03:24:29.787Z,18.20
2018-03-20T03:26:57.405Z,13.38
2018-03-20T03:29:25.768Z,18.25
2018-03-20T03:31:53.377Z,18.42
2018-03-20T03:34:21.755Z,12.32
2018-03-20T03:36:49.347Z,12.93
2018-03-20T03:39:17.724Z,14.95
2018-03-20T03:41:46.084Z,15.52
2018-03-20T03:44:13.709Z,15.73
2018-03-20T03:46:41.318Z,17.35
2018-03-20T03:49:08.941Z,19.05
2018-03-20T03:51:37.311Z,15.65
2018-03-20T03:54:04.936Z,17.37
2018-03-20T03:56:32.527Z,16.67
2018-03-20T03:59:00.116Z,13.27
2018-03-20T04:01:27.804Z,14.00
2018-03-20T04:03:55.368Z,14.90
2018-03-20T04:06:22.982Z,15.75
2018-03-20T04:08:51.364Z,14.35
2018-03-20T04:11:19.755Z,13.90
2018-03-20T04:13:48.111Z,16.87
2018-03-20T04:16:15.723Z,13.98
2018-03-20T04:18:44.078Z,15.13
2018-03-20T04:21:11.681Z,16.50
2018-03-20T04:23:40.073Z,14.57
2018-03-20T04:26:08.432Z,18.90
2018-03-20T04:28:36.060Z,16.42
2018-03-20T04:31:03.703Z,18.75
2018-03-20T04:33:31.323Z,14.63
2018-03-20T04:35:58.916Z,16.40
2018-03-20T04:38:26.532Z,17.30
2018-03-20T04:40:54.904Z,17.85
2018-03-20T04:43:22.538Z,28.30
2018-03-20T04:45:50.134Z,16.15
2018-03-20T04:48:17.740Z,22.60
2018-03-20T04:50:45.352Z,16.55
2018-03-20T04:53:13.004Z,19.12
2018-03-20T04:55:40.650Z,16.30
2018-03-20T04:58:08.249Z,15.80
2018-03-20T05:00:36.768Z,20.45
2018-03-20T05:03:04.376Z,16.37
2018-03-20T05:05:32.025Z,13.85
2018-03-20T05:07:59.612Z,17.25
2018-03-20T05:10:27.210Z,18.12
2018-03-20T05:12:54.867Z,18.12
2018-03-20T05:15:22.468Z,17.90
2018-03-20T05:17:54.012Z,16.15
2018-03-20T05:20:27.335Z,15.32
2018-03-20T05:25:54.020Z,17.10
2018-03-20T05:28:21.670Z,38.05
2018-03-20T05:30:49.356Z,28.48
2018-03-20T05:33:17.228Z,18.92
2018-03-20T05:35:44.896Z,22.85
2018-03-20T05:38:12.489Z,20.00
2018-03-20T05:40:40.118Z,19.65
2018-03-20T05:43:07.750Z,21.65
2018-03-20T05:45:35.460Z,18.42
2018-03-20T05:48:08.698Z,27.87
2018-03-20T05:50:40.848Z,24.08
2018-03-20T05:53:08.463Z,23.83
2018-03-20T05:55:36.108Z,16.02
2018-03-20T05:58:03.774Z,28.30
2018-03-20T06:00:32.168Z,23.87
2018-03-20T06:02:59.792Z,24.63
2018-03-20T06:05:27.456Z,25.90
2018-03-20T06:07:55.086Z,24.45
2018-03-20T06:10:22.679Z,24.92
2018-03-20T06:12:50.301Z,24.92
2018-03-20T06:15:17.900Z,40.35
2018-03-20T06:17:45.512Z,37.38
2018-03-20T06:20:13.126Z,36.72
2018-03-20T06:22:40.748Z,25.90
2018-03-20T06:25:08.343Z,20.73
2018-03-20T06:27:35.965Z,30.35
2018-03-20T06:30:03.578Z,25.17
2018-03-20T06:32:31.188Z,21.90
2018-03-20T06:34:58.844Z,26.25
2018-03-20T06:37:26.469Z,21.77
2018-03-20T06:39:54.096Z,26.33
2018-03-20T06:42:21.712Z,19.67
2018-03-20T06:44:49.338Z,23.38
2018-03-20T06:47:16.924Z,20.58
2018-03-20T06:49:44.535Z,17.23
2018-03-20T06:52:12.136Z,19.87
2018-03-20T06:54:39.782Z,18.62
2018-03-20T06:57:07.382Z,19.15
2018-03-20T06:59:35.012Z,22.13
2018-03-20T07:02:02.616Z,17.40
2018-03-20T07:04:30.200Z,14.87
2018-03-20T07:06:57.841Z,19.50
2018-03-20T07:09:26.198Z,15.88
2018-03-20T07:11:53.825Z,18.87
2018-03-20T07:14:21.426Z,16.17
2018-03-20T07:16:49.065Z,19.70
2018-03-20T07:19:16.648Z,17.67
2018-03-20T07:21:44.219Z,16.67
2018-03-20T07:24:11.830Z,17.92
2018-03-20T07:26:39.403Z,16.00
2018-03-20T07:29:07.000Z,17.92
2018-03-20T07:31:35.361Z,13.75
2018-03-20T07:34:02.967Z,14.05
2018-03-20T07:36:31.328Z,15.13
2018-03-20T07:38:58.962Z,14.10
2018-03-20T07:41:26.550Z,16.45
2018-03-20T07:43:54.155Z,15.23
2018-03-20T07:46:21.771Z,19.83
2018-03-20T07:48:49.390Z,16.73
2018-03-20T07:51:16.997Z,13.82
2018-03-20T07:53:44.607Z,15.90
2018-03-20T07:56:12.221Z,16.62
2018-03-20T07:58:39.808Z,21.67
2018-03-20T08:01:07.417Z,23.12
2018-03-20T08:03:35.013Z,15.55
2018-03-20T08:06:02.587Z,14.05
2018-03-20T08:08:30.189Z,18.65
2018-03-20T08:10:57.769Z,19.75
2018-03-20T08:13:25.371Z,18.02
2018-03-20T08:15:53.716Z,13.65
2018-03-20T08:18:21.322Z,14.68
2018-03-20T08:20:49.693Z,15.48
2018-03-20T08:23:17.313Z,14.95
2018-03-20T08:25:44.907Z,13.40
2018-03-20T08:28:12.551Z,14.80
2018-03-20T08:30:40.896Z,14.10
2018-03-20T08:33:08.480Z,14.27
2018-03-20T08:35:36.101Z,12.80
2018-03-20T08:38:03.689Z,13.50
2018-03-20T08:40:31.301Z,14.15
2018-03-20T08:42:58.897Z,12.68
2018-03-20T08:45:27.260Z,14.38
2018-03-20T08:47:54.836Z,15.25
2018-03-20T08:50:22.466Z,14.95
2018-03-20T08:52:50.053Z,13.38
2018-03-20T08:55:17.662Z,14.23
2018-03-20T08:57:45.279Z,11.70
2018-03-20T09:00:12.882Z,16.80
2018-03-20T09:02:40.484Z,12.68
2018-03-20T09:05:08.057Z,13.20
2018-03-20T09:07:35.680Z,12.40
2018-03-20T09:10:03.285Z,14.60
2018-03-20T09:12:30.964Z,11.88
2018-03-20T09:14:58.503Z,15.90
2018-03-20T09:17:26.077Z,13.43
2018-03-20T09:19:53.681Z,12.13
2018-03-20T09:22:21.257Z,13.77
2018-03-20T09:24:48.874Z,13.35
2018-03-20T09:27:16.462Z,13.55
2018-03-20T09:29:44.053Z,14.15
2018-03-20T09:32:11.650Z,16.45
2018-03-20T09:34:39.248Z,10.93
2018-03-20T09:37:07.607Z,11.75
2018-03-20T09:39:35.192Z,13.48
2018-03-20T09:42:02.797Z,14.25
2018-03-20T09:44:30.375Z,11.40
2018-03-20T09:46:57.984Z,9.82
2018-03-20T09:49:25.555Z,9.38
2018-03-20T09:51:53.188Z,10.90
2018-03-20T09:54:21.528Z,12.00
2018-03-20T09:56:49.119Z,10.65
2018-03-20T09:59:16.774Z,11.23
2018-03-20T10:01:44.387Z,11.38
2018-03-20T10:04:12.752Z,10.48
2018-03-20T10:06:40.329Z,10.45
2018-03-20T10:09:07.930Z,9.95
2018-03-20T10:11:36.286Z,10.93
2018-03-20T10:14:03.893Z,10.38
2018-03-20T10:16:32.241Z,11.40
2018-03-20T10:18:59.824Z,10.77
2018-03-20T10:21:27.402Z,8.77
2018-03-20T10:23:55.011Z,10.30
2018-03-20T10:26:23.353Z,11.95
2018-03-20T10:28:50.963Z,11.65
2018-03-20T10:31:18.540Z,8.85
2018-03-20T10:33:46.921Z,10.05
2018-03-20T10:36:14.500Z,10.05
2018-03-20T10:38:42.074Z,11.07
2018-03-20T10:41:10.442Z,8.82
2018-03-20T10:43:38.457Z,8.65
2018-03-20T10:46:06.847Z,8.02
2018-03-20T10:48:35.182Z,9.63
2018-03-20T10:51:02.787Z,8.88
2018-03-20T10:53:30.361Z,15.18
2018-03-20T10:55:58.023Z,10.05
2018-03-20T10:58:25.593Z,9.43
2018-03-20T11:00:58.888Z,8.52
2018-03-20T11:03:26.480Z,8.40
2018-03-20T11:05:54.061Z,8.40
2018-03-20T11:08:21.655Z,8.90
2018-03-20T11:10:50.002Z,8.77
2018-03-20T11:13:17.609Z,9.60
2018-03-20T11:15:45.952Z,11.30
2018-03-20T11:18:13.545Z,9.63
2018-03-20T11:20:41.122Z,10.60
2018-03-20T11:23:08.727Z,10.05
2018-03-20T11:25:37.082Z,11.38
2018-03-20T11:28:04.680Z,9.38
2018-03-20T11:30:32.261Z,10.43
2018-03-20T11:33:00.636Z,8.30
2018-03-20T11:35:28.997Z,9.25
2018-03-20T11:37:56.576Z,10.40
2018-03-20T11:40:24.181Z,9.25
2018-03-20T11:42:51.767Z,9.18
2018-03-20T11:45:20.130Z,9.55
2018-03-20T11:47:47.705Z,8.60
2018-03-20T11:50:15.296Z,9.40
2018-03-20T11:52:43.627Z,9.82
2018-03-20T11:55:11.232Z,8.40
2018-03-20T11:57:39.216Z,9.63
2018-03-20T12:00:06.881Z,10.20
2018-03-20T12:02:34.482Z,9.93
2018-03-20T12:05:02.056Z,8.82
2018-03-20T12:07:29.657Z,12.73
2018-03-20T12:09:58.009Z,9.40
2018-03-20T12:12:25.618Z,10.70
2018-03-20T12:14:53.960Z,10.20
2018-03-20T12:17:21.628Z,9.18
2018-03-20T12:19:49.239Z,11.50
2018-03-20T12:22:16.804Z,10.27
2018-03-20T12:24:44.405Z,10.55
2018-03-20T12:27:11.976Z,12.50
2018-03-20T12:29:40.335Z,11.10
2018-03-20T12:32:07.925Z,9.50
2018-03-20T12:34:35.530Z,10.45
2018-03-20T12:37:03.103Z,11.48
2018-03-20T12:39:30.804Z,10.95
2018-03-20T12:41:58.392Z,10.02
2018-03-20T12:44:25.973Z,11.50
2018-03-20T12:46:53.576Z,12.07
2018-03-20T12:49:21.934Z,9.73
2018-03-20T12:51:49.539Z,11.27
2018-03-20T12:54:17.160Z,11.35
2018-03-20T12:56:44.774Z,10.07
2018-03-20T12:59:12.377Z,13.62
2018-03-20T13:01:39.971Z,10.90
2018-03-20T13:04:07.656Z,13.62
2018-03-20T13:06:35.254Z,10.85
2018-03-20T13:09:02.844Z,10.73
2018-03-20T13:11:31.188Z,9.40
2018-03-20T13:13:58.780Z,9.18
2018-03-20T13:16:26.368Z,9.55
2018-03-20T13:18:53.989Z,11.12
2018-03-20T13:21:21.582Z,11.15
2018-03-20T13:23:49.178Z,11.80
2018-03-20T13:26:16.761Z,10.32
2018-03-20T13:28:44.377Z,10.27
2018-03-20T13:31:12.352Z,13.05
2018-03-20T13:33:39.941Z,11.68
2018-03-20T13:36:07.547Z,12.50
2018-03-20T13:38:35.124Z,12.85
2018-03-20T13:41:02.737Z,12.43
2018-03-20T13:43:31.083Z,12.98
2018-03-20T13:45:59.026Z,14.07
2018-03-20T13:48:26.710Z,16.02
2018-03-20T13:50:54.325Z,12.63
2018-03-20T13:53:27.858Z,14.52
2018-03-20T13:55:56.238Z,14.35
2018-03-20T13:58:23.880Z,18.23
2018-03-20T14:00:51.486Z,17.05
2018-03-20T14:03:19.094Z,15.05
2018-03-20T14:05:46.702Z,16.48
2018-03-20T14:08:14.458Z,15.13
2018-03-20T14:10:42.054Z,19.08
2018-03-20T14:13:09.663Z,18.65
2018-03-20T14:15:38.012Z,19.17
2018-03-20T14:18:05.621Z,17.10
2018-03-20T14:20:33.218Z,18.95
2018-03-20T14:23:00.840Z,21.58
2018-03-20T14:25:28.432Z,23.08
2018-03-20T14:27:56.013Z,19.45
2018-03-20T14:30:23.630Z,19.62
2018-03-20T14:32:51.227Z,22.30
2018-03-20T14:35:18.856Z,22.60
2018-03-20T14:37:46.459Z,24.40
2018-03-20T14:40:14.105Z,26.70
2018-03-20T14:42:41.693Z,29.83
2018-03-20T14:45:09.309Z,28.05
2018-03-20T14:47:36.899Z,30.50
2018-03-20T14:50:04.480Z,29.80
2018-03-20T14:52:32.092Z,32.30
2018-03-20T14:54:59.755Z,29.17
2018-03-20T14:57:27.339Z,28.45
2018-03-20T14:59:54.920Z,25.40
2018-03-20T15:02:22.526Z,29.60
2018-03-20T15:04:50.188Z,26.70
2018-03-20T15:07:17.842Z,28.52
2018-03-20T15:09:46.169Z,26.42
2018-03-20T15:12:13.824Z,27.33
2018-03-20T15:14:41.493Z,28.90
2018-03-20T15:17:09.075Z,27.67
2018-03-20T15:19:36.685Z,29.52
2018-03-20T15:22:05.058Z,28.27
2018-03-20T15:24:32.689Z,23.80
2018-03-20T15:27:00.269Z,27.08
2018-03-20T15:29:27.873Z,28.67
2018-03-20T15:31:55.458Z,28.40
2018-03-20T15:34:23.081Z,28.40
2018-03-20T15:36:50.674Z,26.70
2018-03-20T15:39:18.342Z,26.62
2018-03-20T15:41:45.957Z,27.05
2018-03-20T15:44:13.541Z,26.05
2018-03-20T15:46:41.934Z,29.67
2018-03-20T15:49:10.288Z,29.67
2018-03-20T15:51:37.903Z,29.60
2018-03-20T15:54:06.247Z,29.60
2018-03-20T15:56:33.894Z,26.20
2018-03-20T15:59:01.496Z,30.33
2018-03-20T16:01:29.112Z,32.63
2018-03-20T16:03:57.488Z,30.75
2018-03-20T16:06:25.215Z,31.60
2018-03-20T16:08:52.845Z,35.40
2018-03-20T16:11:20.441Z,30.88
2018-03-20T16:13:48.080Z,33.38
2018-03-20T16:16:15.673Z,33.20
2018-03-20T16:18:43.308Z,29.67
2018-03-20T16:21:10.909Z,32.08
2018-03-20T16:23:39.323Z,32.85
2018-03-20T16:26:07.697Z,34.88
2018-03-20T16:28:36.082Z,28.17
2018-03-20T16:31:03.766Z,31.90
2018-03-20T16:33:32.131Z,30.42
2018-03-20T16:35:59.742Z,36.90
2018-03-20T16:38:27.365Z,35.67
2018-03-20T16:40:54.981Z,28.08
2018-03-20T16:43:22.588Z,35.58
2018-03-20T16:45:50.208Z,35.15
2018-03-20T16:48:17.845Z,37.20
2018-03-20T16:50:46.691Z,35.53
2018-03-20T16:53:14.297Z,37.50
2018-03-20T16:55:41.907Z,34.20
2018-03-20T16:58:09.688Z,38.40
2018-03-20T17:00:37.290Z,37.80
2018-03-20T17:03:04.903Z,38.65
2018-03-20T17:05:32.500Z,41.13
2018-03-20T17:08:00.136Z,36.55
2018-03-20T17:10:27.742Z,35.53
2018-03-20T17:12:55.333Z,40.50
2018-03-20T17:15:23.540Z,34.90
2018-03-20T17:17:51.132Z,35.83
2018-03-20T17:20:19.507Z,38.92
2018-03-20T17:22:47.109Z,41.50
2018-03-20T17:25:14.740Z,34.83
2018-03-20T17:27:42.355Z,36.47
2018-03-20T17:30:10.866Z,36.78
2018-03-20T17:32:38.466Z,42.00
2018-03-20T17:35:06.093Z,37.65
2018-03-20T17:37:33.736Z,34.65
2018-03-20T17:40:01.321Z,35.00
2018-03-20T17:42:28.932Z,38.35
2018-03-20T17:44:56.530Z,38.55
2018-03-20T17:47:24.156Z,41.03
2018-03-20T17:49:52.513Z,33.00
2018-03-20T17:52:20.135Z,37.80
2018-03-20T17:54:47.733Z,43.58
2018-03-20T17:57:15.325Z,35.10
2018-03-20T17:59:42.932Z,41.13
2018-03-20T18:02:11.384Z,40.28
2018-03-20T18:04:40.825Z,41.60
2018-03-20T18:07:08.414Z,51.65
2018-03-20T18:09:36.020Z,43.95
2018-03-20T18:12:03.612Z,44.15
2018-03-20T18:14:31.232Z,47.75
2018-03-20T18:16:59.593Z,43.55
2018-03-20T18:19:27.223Z,51.42
2018-03-20T18:21:54.847Z,47.78
2018-03-20T18:24:22.440Z,50.35
2018-03-20T18:26:50.048Z,49.38
2018-03-20T18:29:17.650Z,52.15
2018-03-20T18:31:45.269Z,47.83
2018-03-20T18:34:13.652Z,40.00
2018-03-20T18:36:41.274Z,41.97
2018-03-20T18:39:08.852Z,48.95
2018-03-20T18:41:36.443Z,54.25
2018-03-20T18:44:04.057Z,53.97
2018-03-20T18:46:32.513Z,49.95
2018-03-20T18:49:00.121Z,50.58
2018-03-20T18:51:28.669Z,45.33
2018-03-20T18:53:56.285Z,50.40
2018-03-20T18:56:24.651Z,55.10
2018-03-20T18:58:52.289Z,50.22
2018-03-20T19:01:19.936Z,46.45
2018-03-20T19:03:48.310Z,49.20
2018-03-20T19:06:15.915Z,48.67
2018-03-20T19:08:43.540Z,68.85
2018-03-20T19:11:11.146Z,55.55
2018-03-20T19:13:39.808Z,54.28
2018-03-20T19:16:07.599Z,49.15
2018-03-20T19:18:35.293Z,54.80
2018-03-20T19:21:02.981Z,56.80
2018-03-20T19:23:31.384Z,48.10
2018-03-20T19:25:59.065Z,48.17
2018-03-20T19:28:26.655Z,50.38
2018-03-20T19:30:54.308Z,56.55
2018-03-20T19:33:21.907Z,50.72
2018-03-20T19:35:49.512Z,52.00
2018-03-20T19:38:17.088Z,54.42
2018-03-20T19:40:44.727Z,48.25
2018-03-20T19:43:12.410Z,57.47
2018-03-20T19:45:40.025Z,49.45
2018-03-20T19:48:08.416Z,47.97
2018-03-20T19:50:35.999Z,50.90
2018-03-20T19:53:04.365Z,45.25
2018-03-20T19:55:31.960Z,55.12
2018-03-20T19:58:00.338Z,55.67
2018-03-20T20:00:28.076Z,50.78
2018-03-20T20:02:56.764Z,43.50
2018-03-20T20:05:24.639Z,44.10
2018-03-20T20:07:52.372Z,51.08
2018-03-20T20:10:20.112Z,73.40
2018-03-20T20:12:47.817Z,56.05
2018-03-20T20:15:15.412Z,45.90
2018-03-20T20:17:43.949Z,43.28
2018-03-20T20:20:11.699Z,46.15
2018-03-20T20:22:39.299Z,47.78
2018-03-20T20:25:07.065Z,56.95
2018-03-20T20:27:34.666Z,43.03
2018-03-20T20:30:02.308Z,41.25
2018-03-20T20:32:30.652Z,48.28
2018-03-20T20:34:58.248Z,41.30
2018-03-20T20:37:26.620Z,40.92
2018-03-20T20:39:54.357Z,41.45
2018-03-20T20:42:21.989Z,35.25
2018-03-20T20:44:50.441Z,38.08
2018-03-20T20:47:18.064Z,38.60
2018-03-20T20:49:46.412Z,35.17
2018-03-20T20:52:14.096Z,30.33
2018-03-20T20:54:42.591Z,40.58
2018-03-20T20:57:10.185Z,33.97
2018-03-20T20:59:38.560Z,38.63
2018-03-20T21:02:06.153Z,35.40
2018-03-20T21:04:34.562Z,34.13
2018-03-20T21:07:02.173Z,27.42
2018-03-20T21:09:29.767Z,31.98
2018-03-20T21:11:57.529Z,24.37
2018-03-20T21:14:25.172Z,32.22
2018-03-20T21:16:53.164Z,30.90
2018-03-20T21:19:20.906Z,28.25
2018-03-20T21:21:49.321Z,27.50
2018-03-20T21:24:16.892Z,20.48
2018-03-20T21:26:44.517Z,20.90
2018-03-20T21:29:12.108Z,18.65
2018-03-20T21:31:40.476Z,16.83
2018-03-20T21:34:08.085Z,15.25
2018-03-20T21:36:36.448Z,15.93
2018-03-20T21:39:04.099Z,12.73
2018-03-20T21:41:31.672Z,14.50
2018-03-20T21:43:59.276Z,11.35
2018-03-20T21:46:26.849Z,12.43
2018-03-20T21:48:54.494Z,10.65
2018-03-20T21:51:22.084Z,8.65
2018-03-20T21:53:49.677Z,10.13
2018-03-20T21:56:17.573Z,9.40
2018-03-20T21:58:45.941Z,8.02
2018-03-20T22:01:13.536Z,8.77
2018-03-20T22:03:41.875Z,10.63
2018-03-20T22:06:09.473Z,7.45
2018-03-20T22:08:37.132Z,4.85
2018-03-20T22:11:04.746Z,5.55
2018-03-20T22:13:33.087Z,9.55
2018-03-20T22:16:00.782Z,6.05
2018-03-20T22:18:28.385Z,5.20
2018-03-20T22:20:56.837Z,9.20
2018-03-20T22:23:24.438Z,6.93
2018-03-20T22:25:52.042Z,4.65
2018-03-20T22:28:20.400Z,6.80
2018-03-20T22:30:48.025Z,7.28
2018-03-20T22:33:15.638Z,5.68
2018-03-20T22:35:43.221Z,4.93
2018-03-20T22:38:10.862Z,9.80
2018-03-20T22:40:38.439Z,7.87
2018-03-20T22:43:06.036Z,5.30
2018-03-20T22:45:33.641Z,5.30
2018-03-20T22:48:02.002Z,5.03
2018-03-20T22:50:29.613Z,4.22
2018-03-20T22:52:57.211Z,7.53
2018-03-20T22:55:24.816Z,5.55
2018-03-20T22:57:52.676Z,3.78
2018-03-20T23:00:28.038Z,4.22
2018-03-20T23:02:55.638Z,6.55
2018-03-20T23:05:23.234Z,5.25
2018-03-20T23:07:51.576Z,7.37
2018-03-20T23:10:19.276Z,4.65
2018-03-20T23:12:46.848Z,5.12
2018-03-20T23:15:14.490Z,7.75
2018-03-20T23:17:42.065Z,4.35
2018-03-20T23:20:09.643Z,6.35
2018-03-20T23:22:37.265Z,4.60
2018-03-20T23:25:05.609Z,5.90
2018-03-20T23:27:33.205Z,4.40
2018-03-20T23:30:00.804Z,5.30
2018-03-20T23:32:28.432Z,6.15
2018-03-20T23:34:56.050Z,4.37
2018-03-20T23:37:24.438Z,6.25
2018-03-20T23:39:52.785Z,7.57
2018-03-20T23:42:20.409Z,8.30
2018-03-20T23:44:48.753Z,4.45
2018-03-20T23:47:16.380Z,11.70
2018-03-20T23:49:43.945Z,9.60
2018-03-20T23:52:12.292Z,5.57
2018-03-20T23:54:39.892Z,5.95
2018-03-20T23:57:07.492Z,7.57
2018-03-20T23:59:35.091Z,4.60
